Time;durP1;ratioP1;P1;durP2;ratioP2;P2;SDS_P1;SDS_P2;PMS_P1;PMS_P2;Temp;Humidity;BMP_temperature;BMP_pressure;BME280_temperature;BME280_humidity;BME280_pressure;Samples;Min_cycle;Max_cycle;Signal;HPM_P1;HPM_P2
2021/01/15 00:01:05;;;;;;;;;;;19.30;56.90;;;;;;5037675;28;1961;-66
2021/01/15 00:03:34;;;;;;;;;;;19.30;56.90;;;;;;5054752;28;1633;-66
2021/01/15 00:06:05;;;;;;;;;;;19.30;57.00;;;;;;5055011;28;1685;-67
2021/01/15 00:08:34;;;;;;;;;;;19.30;56.90;;;;;;5055620;28;1398;-66
2021/01/15 00:10:59;;;;;;;;;;;19.30;57.00;;;;;;5055110;28;1692;-67
2021/01/15 00:13:25;;;;;;;;;;;19.30;57.00;;;;;;5055125;28;1690;-67
2021/01/15 00:15:50;;;;;;;;;;;19.30;57.00;;;;;;5054714;28;1385;-66
2021/01/15 00:18:15;;;;;;;;;;;19.30;57.00;;;;;;5055354;28;1466;-67
2021/01/15 00:20:41;;;;;;;;;;;19.30;57.00;;;;;;5055536;28;1897;-66
2021/01/15 00:23:06;;;;;;;;;;;19.30;57.00;;;;;;5055035;28;1579;-66
2021/01/15 00:25:32;;;;;;;;;;;19.30;57.00;;;;;;5054959;28;1384;-67
2021/01/15 00:27:57;;;;;;;;;;;19.30;57.00;;;;;;5054756;28;1623;-67
2021/01/15 00:30:23;;;;;;;;;;;19.30;57.00;;;;;;5055354;28;1369;-67
2021/01/15 00:32:48;;;;;;;;;;;19.30;57.00;;;;;;5054901;28;1464;-67
2021/01/15 00:35:14;;;;;;;;;;;19.30;57.00;;;;;;5054196;28;1615;-67
2021/01/15 00:37:39;;;;;;;;;;;19.30;57.00;;;;;;5054843;28;1688;-66
2021/01/15 00:40:05;;;;;;;;;;;19.30;57.00;;;;;;5055133;28;1704;-66
2021/01/15 00:42:33;;;;;;;;;;;19.20;57.00;;;;;;5054653;28;1955;-66
2021/01/15 00:44:59;;;;;;;;;;;19.30;57.00;;;;;;5036426;28;1612;-66
2021/01/15 00:47:25;;;;;;;;;;;19.20;57.00;;;;;;5053573;28;1584;-67
2021/01/15 00:49:50;;;;;;;;;;;19.20;57.00;;;;;;5036701;28;1634;-67
2021/01/15 00:52:16;;;;;;;;;;;19.20;57.00;;;;;;5068186;28;1503;-67
2021/01/15 00:54:41;;;;;;;;;;;19.20;57.10;;;;;;5054850;28;1373;-66
2021/01/15 00:57:07;;;;;;;;;;;19.20;57.60;;;;;;5054356;28;1419;-67
2021/01/15 00:59:32;;;;;;;;;;;19.20;57.10;;;;;;5054261;28;1708;-67
2021/01/15 01:01:58;;;;;;;;;;;19.20;57.10;;;;;;5054230;28;1894;-67
2021/01/15 01:04:23;;;;;;;;;;;19.20;57.10;;;;;;5076508;22;3814;-67
2021/01/15 01:06:48;;;;;;;;;;;19.20;57.10;;;;;;5069831;28;1397;-67
2021/01/15 01:09:14;;;;;;;;;;;19.20;57.10;;;;;;5094453;28;1387;-67
2021/01/15 01:11:39;;;;;;;;;;;19.20;57.10;;;;;;5094709;28;1232;-67
2021/01/15 01:14:05;;;;;;;;;;;19.20;57.10;;;;;;5080078;28;1394;-67
2021/01/15 01:16:31;;;;;;;;;;;19.20;57.10;;;;;;5055998;28;1440;-68
2021/01/15 01:18:56;;;;;;;;;;;19.20;57.10;;;;;;5074200;28;1682;-68
2021/01/15 01:21:22;;;;;;;;;;;19.20;57.20;;;;;;5074406;28;1960;-68
2021/01/15 01:23:47;;;;;;;;;;;19.20;57.10;;;;;;5074351;28;1381;-67
2021/01/15 01:26:13;;;;;;;;;;;19.20;57.10;;;;;;5056054;28;1501;-67
2021/01/15 01:28:39;;;;;;;;;;;19.20;57.20;;;;;;5074810;28;1361;-67
2021/01/15 01:31:05;;;;;;;;;;;19.20;57.20;;;;;;5074153;28;1687;-67
2021/01/15 01:33:30;;;;;;;;;;;19.10;57.10;;;;;;5074057;28;1695;-66
2021/01/15 01:35:56;;;;;;;;;;;19.20;57.20;;;;;;5074071;28;1422;-67
2021/01/15 01:38:21;;;;;;;;;;;19.20;57.20;;;;;;5074289;28;1426;-67
2021/01/15 01:40:47;;;;;;;;;;;19.20;57.20;;;;;;5073308;28;1946;-66
2021/01/15 01:43:13;;;;;;;;;;;19.10;57.20;;;;;;5073087;28;1612;-66
2021/01/15 01:45:38;;;;;;;;;;;19.20;57.20;;;;;;5073564;28;1366;-66
2021/01/15 01:48:04;;;;;;;;;;;19.10;57.20;;;;;;5055711;28;1335;-66
2021/01/15 01:50:30;;;;;;;;;;;19.10;57.20;;;;;;5073307;28;1571;-67
2021/01/15 01:52:56;;;;;;;;;;;19.20;57.20;;;;;;5055490;28;1588;-66
2021/01/15 01:55:21;;;;;;;;;;;19.20;57.30;;;;;;5055138;28;1707;-66
2021/01/15 01:57:47;;;;;;;;;;;19.20;57.30;;;;;;5073068;28;1138;-67
2021/01/15 02:00:12;;;;;;;;;;;19.20;57.30;;;;;;5073215;28;1363;-67
2021/01/15 02:02:38;;;;;;;;;;;19.20;57.30;;;;;;5073653;28;1969;-67
2021/01/15 02:05:04;;;;;;;;;;;19.20;57.30;;;;;;5055578;28;1575;-67
2021/01/15 02:07:29;;;;;;;;;;;19.10;57.20;;;;;;5073352;28;1652;-67
2021/01/15 02:10:05;;;;;;;;;;;19.10;57.30;;;;;;5073681;28;1653;-67
2021/01/15 02:12:31;;;;;;;;;;;19.10;57.20;;;;;;5055104;28;1698;-67
2021/01/15 02:15:01;;;;;;;;;;;19.10;57.20;;;;;;5054860;28;1602;-67
2021/01/15 02:17:27;;;;;;;;;;;19.10;57.30;;;;;;5072568;28;1626;-67
2021/01/15 02:20:13;;;;;;;;;;;19.10;57.30;;;;;;5055135;28;1692;-67
2021/01/15 02:22:38;;;;;;;;;;;19.10;57.30;;;;;;5071917;28;1910;-67
2021/01/15 02:25:07;;;;;;;;;;;19.10;57.30;;;;;;5071456;28;1663;-67
2021/01/15 02:27:51;;;;;;;;;;;19.10;57.30;;;;;;5072121;28;1676;-66
2021/01/15 02:30:19;;;;;;;;;;;19.10;57.30;;;;;;5072962;28;1133;-66
2021/01/15 02:32:50;;;;;;;;;;;19.10;57.30;;;;;;5073016;28;1437;-67
2021/01/15 02:35:39;;;;;;;;;;;19.10;57.30;;;;;;5073214;28;1597;-66
2021/01/15 02:38:09;;;;;;;;;;;19.10;57.30;;;;;;5030714;28;1631;-67
2021/01/15 02:40:39;;;;;;;;;;;19.10;57.30;;;;;;5055088;28;1954;-66
2021/01/15 02:43:04;;;;;;;;;;;19.10;57.30;;;;;;5072652;28;1645;-66
2021/01/15 02:45:30;;;;;;;;;;;19.10;57.20;;;;;;5054824;28;1408;-66
2021/01/15 02:47:56;;;;;;;;;;;19.10;57.20;;;;;;5072221;28;1404;-67
2021/01/15 02:50:22;;;;;;;;;;;19.10;57.20;;;;;;5054704;28;1604;-66
2021/01/15 02:52:48;;;;;;;;;;;19.10;57.20;;;;;;5072661;28;1479;-67
2021/01/15 02:55:14;;;;;;;;;;;19.20;57.20;;;;;;5072091;28;1697;-67
2021/01/15 02:57:39;;;;;;;;;;;19.10;57.10;;;;;;5071958;28;1404;-67
2021/01/15 03:00:09;;;;;;;;;;;19.10;57.10;;;;;;5054768;28;1619;-67
2021/01/15 03:02:38;;;;;;;;;;;19.10;57.10;;;;;;5053770;28;1906;-67
2021/01/15 03:05:20;;;;;;;;;;;19.20;57.10;;;;;;5052707;28;1617;-67
2021/01/15 03:07:46;;;;;;;;;;;19.20;57.10;;;;;;5054021;28;1704;-67
2021/01/15 03:10:12;;;;;;;;;;;19.20;57.00;;;;;;5054112;28;1699;-67
2021/01/15 03:12:39;;;;;;;;;;;19.20;57.00;;;;;;5076180;28;1679;-67
2021/01/15 03:15:05;;;;;;;;;;;19.20;57.00;;;;;;5058077;28;1602;-67
2021/01/15 03:17:33;;;;;;;;;;;19.20;57.00;;;;;;5058384;28;1664;-67
2021/01/15 03:19:59;;;;;;;;;;;19.20;57.00;;;;;;5058514;28;1615;-67
2021/01/15 03:22:25;;;;;;;;;;;19.20;57.00;;;;;;5076328;28;1972;-66
2021/01/15 03:24:53;;;;;;;;;;;19.20;56.90;;;;;;5058392;28;1296;-66
2021/01/15 03:27:19;;;;;;;;;;;19.20;57.00;;;;;;5075925;28;1158;-67
2021/01/15 03:29:44;;;;;;;;;;;19.20;56.90;;;;;;5057839;28;1069;-67
2021/01/15 03:32:10;;;;;;;;;;;19.20;56.90;;;;;;5062591;28;1354;-67
2021/01/15 03:34:36;;;;;;;;;;;19.20;56.90;;;;;;5092025;28;1454;-66
2021/01/15 03:37:01;;;;;;;;;;;19.20;56.90;;;;;;5096045;28;1677;-66
2021/01/15 03:39:26;;;;;;;;;;;19.20;56.90;;;;;;5096152;28;1707;-66
2021/01/15 03:41:52;;;;;;;;;;;19.20;56.80;;;;;;5096416;28;1894;-66
2021/01/15 03:44:17;;;;;;;;;;;19.20;56.90;;;;;;5095635;28;1688;-67
2021/01/15 03:46:43;;;;;;;;;;;19.30;56.90;;;;;;5095195;28;1178;-67
2021/01/15 03:49:08;;;;;;;;;;;19.20;56.80;;;;;;5096232;28;1184;-66
2021/01/15 03:51:36;;;;;;;;;;;19.20;56.80;;;;;;5066765;28;1482;-67
2021/01/15 03:54:01;;;;;;;;;;;19.30;56.90;;;;;;5074826;28;1605;-67
2021/01/15 03:56:27;;;;;;;;;;;19.30;56.90;;;;;;5074524;28;1480;-67
2021/01/15 03:58:52;;;;;;;;;;;19.30;56.80;;;;;;5069410;28;1368;-67
2021/01/15 04:01:18;;;;;;;;;;;19.30;56.80;;;;;;5077898;28;1910;-67
2021/01/15 04:03:43;;;;;;;;;;;19.30;56.80;;;;;;5095274;28;1255;-67
2021/01/15 04:06:09;;;;;;;;;;;19.30;56.80;;;;;;5095663;28;1135;-67
2021/01/15 04:08:34;;;;;;;;;;;19.30;56.80;;;;;;5095982;28;1087;-67
2021/01/15 04:10:59;;;;;;;;;;;19.30;56.80;;;;;;5095256;28;1079;-67
2021/01/15 04:13:25;;;;;;;;;;;19.30;56.80;;;;;;5085992;28;1363;-67
2021/01/15 04:15:50;;;;;;;;;;;19.30;56.70;;;;;;5074419;28;1142;-67
2021/01/15 04:18:16;;;;;;;;;;;19.30;56.70;;;;;;5075392;28;1139;-67
2021/01/15 04:20:41;;;;;;;;;;;19.30;56.70;;;;;;5057235;28;1913;-66
2021/01/15 04:23:07;;;;;;;;;;;19.30;56.70;;;;;;5073564;28;1260;-67
2021/01/15 04:25:32;;;;;;;;;;;19.30;56.70;;;;;;5074878;28;1139;-67
2021/01/15 04:27:58;;;;;;;;;;;19.30;56.70;;;;;;5057559;28;1072;-67
2021/01/15 04:30:23;;;;;;;;;;;19.30;57.30;;;;;;5056567;28;1356;-67
2021/01/15 04:32:49;;;;;;;;;;;19.30;56.70;;;;;;5074897;28;1091;-67
2021/01/15 04:35:14;;;;;;;;;;;19.30;56.70;;;;;;5074412;28;1215;-67
2021/01/15 04:37:40;;;;;;;;;;;19.30;56.70;;;;;;5074814;28;1154;-67
2021/01/15 04:40:06;;;;;;;;;;;19.30;56.70;;;;;;5057541;28;1009;-67
2021/01/15 04:42:32;;;;;;;;;;;19.30;56.70;;;;;;5074312;28;1894;-67
2021/01/15 04:44:57;;;;;;;;;;;19.40;56.70;;;;;;5072995;28;1213;-67
2021/01/15 04:47:23;;;;;;;;;;;19.30;56.70;;;;;;5056192;28;1167;-67
2021/01/15 04:49:48;;;;;;;;;;;19.30;56.70;;;;;;5056918;28;1128;-67
2021/01/15 04:52:14;;;;;;;;;;;19.30;56.70;;;;;;5056457;28;1218;-67
2021/01/15 04:54:45;;;;;;;;;;;19.30;56.70;;;;;;5056533;28;1203;-67
2021/01/15 04:57:11;;;;;;;;;;;19.30;56.70;;;;;;5056458;28;1179;-67
2021/01/15 04:59:42;;;;;;;;;;;19.30;56.70;;;;;;5073948;28;1095;-67
2021/01/15 05:02:08;;;;;;;;;;;19.30;56.70;;;;;;5055970;28;1910;-67
2021/01/15 05:04:34;;;;;;;;;;;19.30;56.70;;;;;;5056137;28;1274;-67
2021/01/15 05:07:01;;;;;;;;;;;19.40;56.70;;;;;;5056464;28;1119;-67
2021/01/15 05:09:26;;;;;;;;;;;19.30;56.70;;;;;;5074107;28;1083;-67
2021/01/15 05:11:52;;;;;;;;;;;19.30;56.70;;;;;;5073863;28;1147;-67
2021/01/15 05:14:20;;;;;;;;;;;19.30;56.70;;;;;;5055899;28;1386;-67
2021/01/15 05:16:46;;;;;;;;;;;19.30;56.70;;;;;;5055678;28;1417;-68
2021/01/15 05:19:12;;;;;;;;;;;19.40;56.70;;;;;;5056375;28;1124;-68
2021/01/15 05:21:38;;;;;;;;;;;19.30;56.70;;;;;;5055925;28;1968;-67
2021/01/15 05:24:04;;;;;;;;;;;19.30;56.60;;;;;;5073682;28;1260;-67
2021/01/15 05:26:30;;;;;;;;;;;19.30;56.70;;;;;;5055334;28;1104;-67
2021/01/15 05:28:55;;;;;;;;;;;19.40;56.70;;;;;;5072371;28;1192;-67
2021/01/15 05:31:21;;;;;;;;;;;19.30;56.60;;;;;;5073978;28;1186;-67
2021/01/15 05:34:06;;;;;;;;;;;19.30;56.70;;;;;;5072878;28;1212;-67
2021/01/15 05:36:31;;;;;;;;;;;19.30;56.70;;;;;;5055308;28;1056;-67
2021/01/15 05:39:07;;;;;;;;;;;19.30;56.60;;;;;;5055499;28;1171;-67
2021/01/15 05:41:33;;;;;;;;;;;19.30;56.70;;;;;;5073583;28;1963;-67
2021/01/15 05:43:58;;;;;;;;;;;19.30;56.60;;;;;;5073242;28;1389;-67
2021/01/15 05:46:24;;;;;;;;;;;19.30;56.70;;;;;;5073986;28;1072;-67
2021/01/15 05:48:50;;;;;;;;;;;19.30;56.70;;;;;;5073168;28;1115;-67
2021/01/15 05:51:42;;;;;;;;;;;19.30;56.60;;;;;;5073525;28;1091;-67
2021/01/15 05:54:08;;;;;;;;;;;19.30;57.20;;;;;;5070016;28;1472;-67
2021/01/15 05:56:36;;;;;;;;;;;19.30;56.70;;;;;;5073260;28;1179;-67
2021/01/15 05:59:20;;;;;;;;;;;19.30;56.70;;;;;;5073115;28;1292;-67
2021/01/15 06:01:46;;;;;;;;;;;19.30;56.60;;;;;;5073219;28;1902;-68
2021/01/15 06:04:15;;;;;;;;;;;19.30;56.70;;;;;;5072942;28;1297;-68
2021/01/15 06:06:41;;;;;;;;;;;19.30;56.70;;;;;;5055819;28;1167;-67
2021/01/15 06:09:07;;;;;;;;;;;19.40;56.70;;;;;;5055085;28;1060;-68
2021/01/15 06:11:37;;;;;;;;;;;19.30;56.60;;;;;;5073053;28;1182;-67
2021/01/15 06:14:03;;;;;;;;;;;19.30;56.70;;;;;;5072125;28;1279;-67
2021/01/15 06:16:28;;;;;;;;;;;19.30;56.70;;;;;;5074746;28;1061;-68
2021/01/15 06:19:01;;;;;;;;;;;19.30;56.70;;;;;;5092962;28;1103;-67
2021/01/15 06:21:30;;;;;;;;;;;19.30;56.70;;;;;;5075094;28;1961;-67
2021/01/15 06:23:56;;;;;;;;;;;19.30;56.70;;;;;;5074220;28;1258;-68
2021/01/15 06:26:28;;;;;;;;;;;19.30;56.60;;;;;;5074768;28;1103;-67
2021/01/15 06:28:54;;;;;;;;;;;19.30;56.70;;;;;;5093077;28;1134;-68
2021/01/15 06:31:19;;;;;;;;;;;19.30;56.60;;;;;;5074775;28;1524;-67
2021/01/15 06:33:58;;;;;;;;;;;19.30;56.70;;;;;;5074488;28;1354;-67
2021/01/15 06:36:24;;;;;;;;;;;19.30;57.20;;;;;;5055256;28;1669;-69
2021/01/15 06:38:49;;;;;;;;;;;19.30;56.60;;;;;;5054223;28;1275;-68
2021/01/15 06:41:18;;;;;;;;;;;19.30;56.60;;;;;;5072272;28;1953;-67
2021/01/15 06:43:43;;;;;;;;;;;19.40;56.70;;;;;;5078353;28;1386;-68
2021/01/15 06:46:09;;;;;;;;;;;19.40;56.70;;;;;;5066244;28;1262;-68
2021/01/15 06:48:35;;;;;;;;;;;19.30;56.60;;;;;;5053918;28;1586;-68
2021/01/15 06:51:00;;;;;;;;;;;19.30;56.70;;;;;;5077974;28;1299;-68
2021/01/15 06:53:29;;;;;;;;;;;19.30;56.60;;;;;;5054084;28;1355;-68
2021/01/15 06:56:04;;;;;;;;;;;19.40;56.70;;;;;;5040484;28;1308;-68
2021/01/15 06:58:30;;;;;;;;;;;19.30;56.60;;;;;;5070660;28;1271;-68
2021/01/15 07:01:04;;;;;;;;;;;19.40;56.70;;;;;;5079309;28;1953;-67
2021/01/15 07:03:38;;;;;;;;;;;19.30;56.60;;;;;;5091105;28;1344;-67
2021/01/15 07:06:03;;;;;;;;;;;19.30;56.50;;;;;;5090815;28;1067;-68
2021/01/15 07:08:30;;;;;;;;;;;19.30;56.50;;;;;;5052072;28;1295;-66
2021/01/15 07:10:56;;;;;;;;;;;19.40;56.50;;;;;;5080538;28;999;-69
2021/01/15 07:13:26;;;;;;;;;;;19.40;56.50;;;;;;5064548;28;1333;-69
2021/01/15 07:15:52;;;;;;;;;;;19.40;56.40;;;;;;5080274;28;1074;-68
2021/01/15 07:18:24;;;;;;;;;;;19.40;56.30;;;;;;5091357;28;1310;-67
2021/01/15 07:20:49;;;;;;;;;;;19.50;56.30;;;;;;5073257;28;1956;-68
2021/01/15 07:23:15;;;;;;;;;;;19.50;56.20;;;;;;5072855;28;1607;-68
2021/01/15 07:25:47;;;;;;;;;;;19.50;56.20;;;;;;5094368;22;1899;-64
2021/01/15 07:28:12;;;;;;;;;;;19.50;56.20;;;;;;5097956;28;1449;-66
2021/01/15 07:30:37;;;;;;;;;;;19.50;56.10;;;;;;5090908;28;1371;-64
2021/01/15 07:33:04;;;;;;;;;;;19.50;56.10;;;;;;5072114;28;1323;-64
2021/01/15 07:35:30;;;;;;;;;;;19.50;56.10;;;;;;5095825;28;1365;-64
2021/01/15 07:38:07;;;;;;;;;;;19.50;56.30;;;;;;5108384;28;1488;-64
2021/01/15 07:40:36;;;;;;;;;;;19.50;56.10;;;;;;5111287;28;1240;-64
2021/01/15 07:43:02;;;;;;;;;;;19.50;56.10;;;;;;5110348;28;1984;-64
2021/01/15 07:45:28;;;;;;;;;;;19.50;56.10;;;;;;5078575;28;2103;-65
2021/01/15 07:48:01;;;;;;;;;;;19.50;56.10;;;;;;5091547;28;1332;-66
2021/01/15 07:50:30;;;;;;;;;;;19.50;56.10;;;;;;5104222;28;1088;-64
2021/01/15 07:53:19;;;;;;;;;;;19.50;56.10;;;;;;5087146;28;1351;-66
2021/01/15 07:55:55;;;;;;;;;;;19.50;56.10;;;;;;5046480;28;1600;-66
2021/01/15 07:58:21;;;;;;;;;;;19.50;56.10;;;;;;5092338;28;1194;-66
2021/01/15 08:00:47;;;;;;;;;;;19.50;56.10;;;;;;5095318;28;1948;-65
2021/01/15 08:03:13;;;;;;;;;;;19.50;56.10;;;;;;5095798;28;1347;-65
2021/01/15 08:05:38;;;;;;;;;;;19.50;56.10;;;;;;5093789;28;1268;-66
2021/01/15 08:08:04;;;;;;;;;;;19.50;56.10;;;;;;5095210;28;1375;-66
2021/01/15 08:10:30;;;;;;;;;;;19.50;56.10;;;;;;5095724;28;1359;-66
2021/01/15 08:12:55;;;;;;;;;;;19.50;56.10;;;;;;5095273;28;1269;-66
2021/01/15 08:15:30;;;;;;;;;;;19.50;56.10;;;;;;5093275;28;1805;-66
2021/01/15 08:17:56;;;;;;;;;;;19.50;56.10;;;;;;5094285;28;1426;-66
2021/01/15 08:20:22;;;;;;;;;;;19.50;56.20;;;;;;5094381;28;1330;-66
2021/01/15 08:22:48;;;;;;;;;;;19.50;56.20;;;;;;5093862;28;1905;-66
2021/01/15 08:25:22;;;;;;;;;;;19.50;56.20;;;;;;5094868;28;1387;-66
2021/01/15 08:27:48;;;;;;;;;;;19.50;56.20;;;;;;5095035;28;1351;-66
2021/01/15 08:30:13;;;;;;;;;;;19.50;56.20;;;;;;5095612;28;1482;-66
2021/01/15 08:32:41;;;;;;;;;;;19.50;56.20;;;;;;5096001;28;1319;-66
2021/01/15 08:35:10;;;;;;;;;;;19.50;56.20;;;;;;5095155;28;1365;-66
2021/01/15 08:37:35;;;;;;;;;;;19.50;56.30;;;;;;5094998;28;1500;-66
2021/01/15 08:40:01;;;;;;;;;;;19.50;56.20;;;;;;5094029;28;1329;-66
2021/01/15 08:42:30;;;;;;;;;;;19.50;56.20;;;;;;5093073;28;1902;-66
2021/01/15 08:44:57;;;;;;;;;;;19.50;56.30;;;;;;5094637;28;1302;-66
2021/01/15 08:47:22;;;;;;;;;;;19.50;56.30;;;;;;5094591;28;1073;-66
2021/01/15 08:49:52;;;;;;;;;;;19.50;56.30;;;;;;5093583;28;1421;-66
2021/01/15 08:52:26;;;;;;;;;;;19.50;56.30;;;;;;5094988;28;1248;-66
2021/01/15 08:54:52;;;;;;;;;;;19.50;56.30;;;;;;5093000;28;1304;-66
2021/01/15 08:57:25;;;;;;;;;;;19.50;56.30;;;;;;5093069;28;1407;-66
2021/01/15 08:59:50;;;;;;;;;;;19.50;56.30;;;;;;5094824;28;1340;-66
2021/01/15 09:02:15;;;;;;;;;;;19.50;56.30;;;;;;5094392;28;1957;-66
2021/01/15 09:04:43;;;;;;;;;;;19.50;56.30;;;;;;5093143;28;1426;-66
2021/01/15 09:07:08;;;;;;;;;;;19.50;56.30;;;;;;5093556;28;1385;-66
2021/01/15 09:09:34;;;;;;;;;;;19.50;56.40;;;;;;5092507;28;1279;-66
2021/01/15 09:12:00;;;;;;;;;;;19.50;56.40;;;;;;5094445;28;1374;-66
2021/01/15 09:14:27;;;;;;;;;;;19.50;56.40;;;;;;5094152;28;1181;-66
2021/01/15 09:16:53;;;;;;;;;;;19.50;56.40;;;;;;5094162;28;1352;-66
2021/01/15 09:19:18;;;;;;;;;;;19.50;56.40;;;;;;5094409;28;1263;-66
2021/01/15 09:21:45;;;;;;;;;;;19.40;56.30;;;;;;5092450;28;1906;-66
2021/01/15 09:24:10;;;;;;;;;;;19.40;56.40;;;;;;5093437;28;1604;-66
2021/01/15 09:26:35;;;;;;;;;;;19.40;56.40;;;;;;5093627;28;1509;-66
2021/01/15 09:29:01;;;;;;;;;;;19.40;56.40;;;;;;5094669;28;1692;-66
2021/01/15 09:31:26;;;;;;;;;;;19.40;56.40;;;;;;5094218;28;1680;-66
2021/01/15 09:33:52;;;;;;;;;;;19.40;56.40;;;;;;5093970;28;1379;-66
2021/01/15 09:36:18;;;;;;;;;;;19.40;56.40;;;;;;5093586;28;1645;-66
2021/01/15 09:38:43;;;;;;;;;;;19.40;56.40;;;;;;5094238;28;1695;-66
2021/01/15 09:41:09;;;;;;;;;;;19.40;56.40;;;;;;5093908;28;1906;-66
2021/01/15 09:43:34;;;;;;;;;;;19.40;56.40;;;;;;5093848;28;1440;-66
2021/01/15 09:46:00;;;;;;;;;;;19.40;56.40;;;;;;5093578;28;1680;-66
2021/01/15 09:48:25;;;;;;;;;;;19.40;56.40;;;;;;5092524;28;1312;-66
2021/01/15 09:50:51;;;;;;;;;;;19.40;56.40;;;;;;5093590;28;1339;-66
2021/01/15 09:53:16;;;;;;;;;;;19.40;56.40;;;;;;5093523;28;1247;-66
2021/01/15 09:55:42;;;;;;;;;;;19.40;56.40;;;;;;5093162;28;1356;-66
2021/01/15 09:58:07;;;;;;;;;;;19.40;56.40;;;;;;5093350;28;1316;-66
2021/01/15 10:00:33;;;;;;;;;;;19.40;56.40;;;;;;5093369;28;1309;-66
2021/01/15 10:02:58;;;;;;;;;;;19.40;56.40;;;;;;5093112;28;1969;-65
2021/01/15 10:05:24;;;;;;;;;;;19.40;56.40;;;;;;5093316;28;1313;-66
2021/01/15 10:07:49;;;;;;;;;;;19.40;56.40;;;;;;5093717;28;1336;-66
2021/01/15 10:10:15;;;;;;;;;;;19.40;56.40;;;;;;5086953;28;1868;-66
2021/01/15 10:12:43;;;;;;;;;;;19.40;56.40;;;;;;5094144;28;1334;-66
2021/01/15 10:15:09;;;;;;;;;;;19.40;56.30;;;;;;5110315;28;1368;-67
2021/01/15 10:17:41;;;;;;;;;;;19.50;56.30;;;;;;5112453;28;1276;-67
2021/01/15 10:20:07;;;;;;;;;;;19.50;56.20;;;;;;5113438;28;1343;-67
2021/01/15 10:22:33;;;;;;;;;;;19.60;56.10;;;;;;5112173;28;1907;-67
2021/01/15 10:24:58;;;;;;;;;;;19.70;56.00;;;;;;5111175;28;1301;-67
2021/01/15 10:27:24;;;;;;;;;;;19.70;55.90;;;;;;5113198;28;1304;-67
2021/01/15 10:29:49;;;;;;;;;;;19.90;55.70;;;;;;5111997;28;1362;-65
2021/01/15 10:32:15;;;;;;;;;;;20.00;55.50;;;;;;5113189;28;1531;-67
2021/01/15 10:34:40;;;;;;;;;;;20.10;55.30;;;;;;5113368;28;1393;-67
2021/01/15 10:37:05;;;;;;;;;;;20.20;55.00;;;;;;5113283;28;1410;-67
2021/01/15 10:39:31;;;;;;;;;;;20.30;54.80;;;;;;5113301;28;1358;-67
2021/01/15 10:41:56;;;;;;;;;;;20.40;54.70;;;;;;5112944;28;1893;-67
2021/01/15 10:44:22;;;;;;;;;;;20.40;54.40;;;;;;5113346;28;1315;-67
2021/01/15 10:46:49;;;;;;;;;;;20.50;54.20;;;;;;5112819;28;1321;-66
2021/01/15 10:49:15;;;;;;;;;;;20.60;54.10;;;;;;5112988;28;961;-67
2021/01/15 10:51:41;;;;;;;;;;;20.70;53.90;;;;;;5100465;28;1183;-65
2021/01/15 10:54:07;;;;;;;;;;;20.70;53.70;;;;;;5092344;28;1146;-66
2021/01/15 10:56:36;;;;;;;;;;;20.80;53.60;;;;;;5091485;28;1302;-66
2021/01/15 10:59:02;;;;;;;;;;;20.80;53.50;;;;;;5092292;28;1334;-66
2021/01/15 11:01:34;;;;;;;;;;;20.80;53.40;;;;;;5092458;28;1914;-66
2021/01/15 11:04:00;;;;;;;;;;;20.90;53.40;;;;;;5092113;28;1276;-66
2021/01/15 11:06:25;;;;;;;;;;;20.90;53.30;;;;;;5092170;28;1365;-66
2021/01/15 11:08:50;;;;;;;;;;;20.90;53.20;;;;;;5093023;28;1317;-67
2021/01/15 11:11:16;;;;;;;;;;;21.00;53.20;;;;;;5092876;28;1288;-65
2021/01/15 11:13:41;;;;;;;;;;;21.00;53.10;;;;;;5091863;28;1146;-67
2021/01/15 11:16:14;;;;;;;;;;;21.10;53.10;;;;;;5092094;28;1365;-66
2021/01/15 11:18:39;;;;;;;;;;;21.10;53.10;;;;;;5091137;28;1367;-67
2021/01/15 11:21:05;;;;;;;;;;;21.10;52.70;;;;;;5092049;28;1902;-66
2021/01/15 11:23:31;;;;;;;;;;;21.10;52.70;;;;;;5091015;28;1123;-66
2021/01/15 11:25:56;;;;;;;;;;;21.10;52.80;;;;;;5091454;28;1361;-67
2021/01/15 11:28:22;;;;;;;;;;;21.20;52.80;;;;;;5090920;28;1290;-67
2021/01/15 11:30:47;;;;;;;;;;;21.20;52.70;;;;;;5092402;28;1285;-67
2021/01/15 11:33:12;;;;;;;;;;;21.20;52.70;;;;;;5094950;28;1281;-66
2021/01/15 11:35:38;;;;;;;;;;;21.20;52.70;;;;;;5095739;28;1289;-67
2021/01/15 11:38:03;;;;;;;;;;;21.30;52.70;;;;;;5096062;28;1304;-67
2021/01/15 11:40:29;;;;;;;;;;;21.30;52.70;;;;;;5095932;28;1313;-66
2021/01/15 11:42:55;;;;;;;;;;;21.30;52.70;;;;;;5095991;28;1909;-66
2021/01/15 11:45:21;;;;;;;;;;;21.30;52.70;;;;;;5094450;28;1340;-66
2021/01/15 11:47:50;;;;;;;;;;;21.30;52.70;;;;;;5095791;28;1290;-67
2021/01/15 11:50:15;;;;;;;;;;;21.30;52.70;;;;;;5096180;28;1398;-67
2021/01/15 11:52:41;;;;;;;;;;;21.30;52.90;;;;;;5096100;28;1293;-66
2021/01/15 11:55:06;;;;;;;;;;;21.30;52.60;;;;;;5095739;28;1296;-66
2021/01/15 11:57:32;;;;;;;;;;;21.30;52.60;;;;;;5096239;28;1382;-67
2021/01/15 11:59:57;;;;;;;;;;;21.30;52.70;;;;;;5095817;28;1408;-66
2021/01/15 12:02:23;;;;;;;;;;;21.30;52.70;;;;;;5095413;28;1981;-65
2021/01/15 12:04:49;;;;;;;;;;;21.30;52.60;;;;;;5095606;28;1048;-67
2021/01/15 12:07:15;;;;;;;;;;;21.30;52.70;;;;;;5095764;28;1436;-67
2021/01/15 12:09:40;;;;;;;;;;;21.30;52.70;;;;;;5095912;28;1066;-67
2021/01/15 12:12:06;;;;;;;;;;;21.30;52.70;;;;;;5095364;28;1277;-67
2021/01/15 12:14:31;;;;;;;;;;;21.30;52.70;;;;;;5094987;28;1154;-65
2021/01/15 12:16:57;;;;;;;;;;;21.30;52.70;;;;;;5095119;28;1365;-66
2021/01/15 12:19:23;;;;;;;;;;;21.30;52.80;;;;;;5095698;28;1363;-66
2021/01/15 12:21:48;;;;;;;;;;;21.30;52.80;;;;;;5095312;28;1945;-65
2021/01/15 12:24:15;;;;;;;;;;;21.30;52.80;;;;;;5095031;28;1300;-66
2021/01/15 12:26:41;;;;;;;;;;;21.30;52.80;;;;;;5095288;28;1325;-67
2021/01/15 12:29:07;;;;;;;;;;;21.20;52.90;;;;;;5084672;28;1304;-64
2021/01/15 12:31:32;;;;;;;;;;;21.20;52.90;;;;;;5094184;28;1369;-64
2021/01/15 12:33:58;;;;;;;;;;;21.20;52.90;;;;;;5071434;28;982;-64
2021/01/15 12:36:23;;;;;;;;;;;21.20;53.00;;;;;;5098359;28;1311;-64
2021/01/15 12:38:49;;;;;;;;;;;21.20;53.10;;;;;;5110214;28;944;-64
2021/01/15 12:41:15;;;;;;;;;;;21.20;53.10;;;;;;5114732;28;1901;-64
2021/01/15 12:43:41;;;;;;;;;;;21.20;53.20;;;;;;5100553;28;1368;-64
2021/01/15 12:46:09;;;;;;;;;;;21.10;53.10;;;;;;5106710;28;1313;-65
2021/01/15 12:48:34;;;;;;;;;;;21.10;53.80;;;;;;5106219;28;1306;-64
2021/01/15 12:51:00;;;;;;;;;;;21.10;53.30;;;;;;5108387;28;1455;-65
2021/01/15 12:53:25;;;;;;;;;;;21.10;53.30;;;;;;5093178;28;1157;-66
2021/01/15 12:55:51;;;;;;;;;;;21.10;53.40;;;;;;5093206;28;1294;-66
2021/01/15 12:58:17;;;;;;;;;;;21.00;53.40;;;;;;5094741;28;1107;-66
2021/01/15 13:00:42;;;;;;;;;;;21.00;53.40;;;;;;5094019;28;1456;-64
2021/01/15 13:03:08;;;;;;;;;;;21.00;53.50;;;;;;5093431;28;1965;-66
2021/01/15 13:05:35;;;;;;;;;;;21.00;53.50;;;;;;5093422;28;1284;-65
2021/01/15 13:08:01;;;;;;;;;;;20.90;53.60;;;;;;5093970;28;1420;-66
2021/01/15 13:10:26;;;;;;;;;;;20.90;53.60;;;;;;5094127;28;1308;-66
2021/01/15 13:12:52;;;;;;;;;;;20.90;53.60;;;;;;5093812;28;1027;-65
2021/01/15 13:15:17;;;;;;;;;;;20.90;53.70;;;;;;5092559;28;1340;-65
2021/01/15 13:17:49;;;;;;;;;;;20.90;53.70;;;;;;5106775;28;1360;-65
2021/01/15 13:20:15;;;;;;;;;;;20.80;53.70;;;;;;5114776;28;927;-65
2021/01/15 13:22:40;;;;;;;;;;;20.80;53.80;;;;;;5093731;28;1999;-66
2021/01/15 13:25:06;;;;;;;;;;;20.80;53.80;;;;;;5096368;28;1538;-65
2021/01/15 13:27:32;;;;;;;;;;;20.80;53.90;;;;;;5093097;22;3870;-69
2021/01/15 13:29:57;;;;;;;;;;;20.80;53.90;;;;;;5052920;28;842;-66
2021/01/15 13:32:22;;;;;;;;;;;20.80;53.90;;;;;;5053511;28;1476;-69
2021/01/15 13:34:49;;;;;;;;;;;20.80;54.00;;;;;;5035113;28;1414;-68
2021/01/15 13:37:15;;;;;;;;;;;20.80;54.00;;;;;;5052056;28;1339;-68
2021/01/15 13:39:40;;;;;;;;;;;20.80;54.00;;;;;;5033342;28;1684;-67
2021/01/15 13:42:06;;;;;;;;;;;20.70;54.10;;;;;;5023314;28;1918;-67
2021/01/15 13:44:31;;;;;;;;;;;20.70;54.10;;;;;;5032756;28;1682;-67
2021/01/15 13:46:57;;;;;;;;;;;20.70;54.10;;;;;;5015912;28;1690;-66
2021/01/15 13:49:24;;;;;;;;;;;20.70;54.10;;;;;;5040604;28;1692;-67
2021/01/15 13:51:50;;;;;;;;;;;20.60;54.20;;;;;;5052983;28;1674;-67
2021/01/15 13:54:15;;;;;;;;;;;20.60;54.20;;;;;;5034666;28;1702;-68
2021/01/15 13:56:41;;;;;;;;;;;20.60;54.30;;;;;;5052426;28;1576;-67
2021/01/15 13:59:08;;;;;;;;;;;20.60;54.30;;;;;;5045984;28;1232;-66
2021/01/15 14:01:36;;;;;;;;;;;20.60;54.40;;;;;;5032757;28;1906;-66
2021/01/15 14:04:01;;;;;;;;;;;20.60;54.40;;;;;;5032670;28;1183;-66
2021/01/15 14:06:27;;;;;;;;;;;20.60;54.50;;;;;;5014949;28;1719;-69
2021/01/15 14:08:52;;;;;;;;;;;20.50;54.40;;;;;;5015414;28;1404;-66
2021/01/15 14:11:17;;;;;;;;;;;20.50;54.40;;;;;;5014903;28;1401;-68
2021/01/15 14:13:43;;;;;;;;;;;20.50;54.40;;;;;;5037128;28;1522;-67
2021/01/15 14:16:08;;;;;;;;;;;20.50;54.50;;;;;;5032964;28;1261;-71
2021/01/15 14:18:34;;;;;;;;;;;20.50;54.60;;;;;;5032675;28;1739;-67
2021/01/15 14:21:00;;;;;;;;;;;20.50;54.60;;;;;;5019451;28;1898;-69
2021/01/15 14:23:25;;;;;;;;;;;20.50;54.70;;;;;;5047642;28;1660;-68
2021/01/15 14:25:51;;;;;;;;;;;20.40;54.70;;;;;;5026764;28;1605;-71
2021/01/15 14:28:16;;;;;;;;;;;20.40;54.70;;;;;;5056082;28;1259;-67